Alliance, NE (69301)

10:31 AM MST on February 22, 2017 (GMT -0700)
Alliance | | Change Station
Active Advisory: Winter Storm Watch

Elev 3999 ft 42.11 °N, 102.88 °W | Updated 14 minutes ago

Clear
Clear
53.6 °F
Feels Like 53.6 °F
N
7.3
Wind Variable Wind from West

Today
High -- | Low -- °F
--% Chance of Precip.
Yesterday
High -- | Low -- °F
Precip. -- in
Pressure 29.81 in
Visibility 10.0 miles
Clouds Clear
Dew Point 27 °F
Humidity 35%
Rainfall 0.00 in
Snow Depth Not available.
6:36 AM 5:33 PM
Waning Crescent, 16% visible
METAR KAIA 221653Z AUTO 30023G31KT 10SM CLR 11/M04 A2982 RMK AO2 PK WND 30035/1558 SLP092 T01061044
Pressure 29.81 in
Visibility 10.0 miles
Clouds Clear
Dew Point 27 °F
Humidity 35%
Rainfall 0.00 in
Snow Depth Not available.
6:36 AM 5:33 PM
Waning Crescent, 16% visible
METAR KAIA 221653Z AUTO 30023G31KT 10SM CLR 11/M04 A2982 RMK AO2 PK WND 30035/1558 SLP092 T01061044

Get Your Daily Forecast Email!

Thanks for signing up!

Be on the lookout for a verification email in your inbox.

You'll start receiving the daily forecast at 8 AM.

×

10-Day Weather Forecast

Almanac

Astronomy

Feb. 22, 2017 Rise Set
Actual Time
Civil Twilight
Nautical Twilight
Astronomical Twilight
Moon
Length of Visible Light
Length of Day
Tomorrow will be .
, % of the Moon is Illuminated

Today's Extremes

State Highs State Lows

Community

WunderPhotos

Upload Photos

1,962,540 photos uploaded!

WunderBlog® & News

Nearby

Air Quality

  Air Quality AQ Index Pollutant
Not available.

Snow Depth

Station Depth Elevation

Earthquake Activity

City Distance Mag. Time & Date
Minimum magnitude displayed is 2.5.

Coastal Water Temperatures

Place Temperature

Stations

Nearby Weather Stations

Station Location Temp. Windchill Dew Point Humidity Wind Precip. Elev Updated Type
                   

Watches & Warnings

Winter Storm Watch
Issued: 3:59 AM MST Feb. 22, 2017 – National Weather Service

... Winter Storm Watch now in effect from this evening through
Friday morning...

* timing... snow will begin this evening and continue through
Friday morning. The snow may be heavy at times on Thursday.

* Total snow accumulations... 8 to 14 inches with locally higher
amounts possible across much of east central Wyoming and the
northern Nebraska Panhandle. 6 to 12 inches along a Cheyenne to
Bridgeport line.

* Winds/visibility... east to northeast winds 20 to 30 mph with
gusts to 40 mph expected north of Interstate 80 on Thursday.
Visibilities will be reduced to one quarter of a mile at times
in falling and blowing snow.

* Impacts... mainly to transportation. Icy and snow packed roads
and low visibilities could lead to dangerous or impossible
travel conditions.

Precautionary/preparedness actions...

A Winter Storm Watch means there is a potential for significant
snow accumulations that may impact travel. Continue to monitor
the latest forecasts.